Time;durP1;ratioP1;P1;durP2;ratioP2;P2;SDS_P1;SDS_P2;PMS_P1;PMS_P2;Temp;Humidity;BMP_temperature;BMP_pressure;BME280_temperature;BME280_humidity;BME280_pressure;Samples;Min_cycle;Max_cycle;Signal;HPM_P1;HPM_P2
2022/06/01 00:00:42;;;;;;;3.83;2.20;;;;;;;26.91;40.94;99125.34;5059381;28;20025;-83
2022/06/01 00:03:08;;;;;;;3.83;2.20;;;;;;;26.90;41.04;99121.00;5059516;28;20052;-84
2022/06/01 00:05:34;;;;;;;3.70;2.17;;;;;;;26.88;41.26;99113.09;5077448;28;20081;-82
2022/06/01 00:08:00;;;;;;;3.63;2.10;;;;;;;26.89;41.19;99116.63;5059750;28;20033;-84
2022/06/01 00:10:26;;;;;;;2.88;1.75;;;;;;;26.87;40.88;99110.59;5060626;28;20103;-82
2022/06/01 00:12:54;;;;;;;2.88;1.70;;;;;;;26.87;41.22;99113.25;5060214;28;20020;-85
2022/06/01 00:15:21;;;;;;;3.33;1.75;;;;;;;26.86;40.99;99108.88;5060043;28;20365;-83
2022/06/01 00:17:47;;;;;;;3.10;1.90;;;;;;;26.84;40.93;99114.38;5059877;28;20035;-84
2022/06/01 00:20:14;;;;;;;3.33;1.90;;;;;;;26.83;41.14;99114.53;5077750;28;20099;-84
2022/06/01 00:22:40;;;;;;;2.72;1.60;;;;;;;26.81;41.27;99112.84;5059949;28;20028;-83
2022/06/01 00:25:07;;;;;;;3.13;1.80;;;;;;;26.80;41.18;99105.78;5061672;28;20017;-84
2022/06/01 00:27:34;;;;;;;3.50;1.92;;;;;;;26.79;40.99;99104.06;5061541;28;20058;-83
2022/06/01 00:29:59;;;;;;;4.45;2.00;;;;;;;26.77;41.01;99106.06;5080443;28;20044;-84
2022/06/01 00:32:25;;;;;;;4.78;2.17;;;;;;;26.77;40.94;99094.50;5079339;28;20099;-83
2022/06/01 00:34:50;;;;;;;3.60;1.90;;;;;;;26.76;41.08;99098.16;5058830;28;20063;-83
2022/06/01 00:37:19;;;;;;;3.13;2.03;;;;;;;26.75;40.80;99091.13;5058665;28;20023;-82
2022/06/01 00:39:45;;;;;;;3.90;1.83;;;;;;;26.73;41.16;99088.59;5076466;28;20052;-83
2022/06/01 00:42:31;;;;;;;3.63;1.92;;;;;;;26.73;41.12;99093.94;5059680;28;20035;-84
2022/06/01 00:44:57;;;;;;;3.47;1.90;;;;;;;26.71;40.96;99087.03;5059792;28;20032;-82
2022/06/01 00:47:24;;;;;;;3.88;1.80;;;;;;;26.70;41.32;99088.88;5058868;28;20025;-85
2022/06/01 00:50:01;;;;;;;3.03;1.83;;;;;;;26.70;41.14;99088.03;5076148;28;20028;-84
2022/06/01 00:52:38;;;;;;;3.35;1.83;;;;;;;26.66;41.01;99088.31;5075629;28;20021;-84
2022/06/01 00:55:07;;;;;;;3.50;1.70;;;;;;;26.67;41.01;99094.50;5058480;28;20115;-82
2022/06/01 00:57:33;;;;;;;3.67;1.73;;;;;;;26.66;41.06;99087.47;5058342;28;20020;-84
2022/06/01 01:00:04;;;;;;;3.25;1.83;;;;;;;26.64;41.19;99095.63;5058712;28;20354;-83
2022/06/01 01:02:30;;;;;;;2.83;1.80;;;;;;;26.62;41.09;99081.53;5076420;28;20057;-83
2022/06/01 01:04:56;;;;;;;3.65;1.75;;;;;;;26.62;41.14;99086.03;5075879;28;20029;-83
2022/06/01 01:07:22;;;;;;;2.58;1.55;;;;;;;26.61;41.24;99084.34;5060184;28;20028;-82
2022/06/01 01:09:48;;;;;;;3.00;1.80;;;;;;;26.59;41.38;99081.84;5058188;28;20457;-83
2022/06/01 01:12:14;;;;;;;3.40;1.35;;;;;;;26.58;41.17;99082.81;5058460;28;20030;-82
2022/06/01 01:14:43;;;;;;;2.97;1.50;;;;;;;26.57;41.05;99072.25;5058376;28;20111;-83
2022/06/01 01:17:10;;;;;;;2.55;1.60;;;;;;;26.54;41.48;99066.19;5058191;28;20116;-84
2022/06/01 01:19:48;;;;;;;3.00;1.77;;;;;;;26.54;41.22;99070.72;5058637;28;20032;-85
2022/06/01 01:22:37;;;;;;;3.97;1.60;;;;;;;26.52;41.38;99065.50;5061413;28;20101;-86
2022/06/01 01:25:28;;;;;;;3.00;1.45;;;;;;;26.52;41.10;99064.63;5066013;28;20035;-83
2022/06/01 01:27:57;;;;;;;3.47;1.70;;;;;;;26.50;41.13;99070.16;5059218;28;20025;-84
2022/06/01 01:30:25;;;;;;;3.15;1.40;;;;;;;26.48;41.41;99064.06;5059157;28;20401;-84
2022/06/01 01:32:51;;;;;;;2.97;1.73;;;;;;;26.47;41.43;99057.03;5077864;28;20051;-84
2022/06/01 01:35:17;;;;;;;2.28;1.40;;;;;;;26.47;41.40;99051.69;5060708;28;20024;-85
2022/06/01 01:37:43;;;;;;;3.03;1.75;;;;;;;26.46;41.15;99047.31;5062033;28;20044;-86
2022/06/01 01:40:10;;;;;;;2.53;1.42;;;;;;;26.44;41.28;99049.28;5081342;28;20020;-85
2022/06/01 01:42:35;;;;;;;3.78;1.60;;;;;;;26.42;41.20;99042.41;5082788;28;20433;-87
2022/06/01 01:45:01;;;;;;;2.15;1.30;;;;;;;26.42;41.30;99042.41;5083498;28;20016;-86
2022/06/01 01:47:28;;;;;;;2.65;1.50;;;;;;;26.40;41.26;99045.22;5064307;28;20036;-84
2022/06/01 01:49:54;;;;;;;3.83;1.60;;;;;;;26.39;41.07;99048.88;5060317;28;20031;-83
2022/06/01 01:52:20;;;;;;;2.88;1.55;;;;;;;26.39;41.46;99038.19;5057658;28;20119;-82
2022/06/01 01:55:09;;;;;;;3.00;1.73;;;;;;;26.38;41.29;99041.81;5075068;28;20334;-83
2022/06/01 01:57:58;;;;;;;2.42;1.42;;;;;;;26.36;41.10;99035.75;5057356;28;20470;-82
2022/06/01 02:00:34;;;;;;;3.28;1.75;;;;;;;26.36;41.14;99033.09;5057600;28;20020;-82
2022/06/01 02:03:38;;;;;;;3.53;1.80;;;;;;;26.35;41.21;99040.25;5057918;28;20052;-83
2022/06/01 02:06:28;;;;;;;3.17;1.55;;;;;;;26.33;41.28;99036.06;4978507;28;20045;-83
2022/06/01 02:09:05;;;;;;;2.20;1.45;;;;;;;26.32;41.30;99026.31;5054577;28;20043;-83
2022/06/01 02:14:34;;;;;;;3.40;1.70;;;;;;;26.27;41.34;99013.38;5075362;28;20035;-83
2022/06/01 02:17:02;;;;;;;3.25;1.60;;;;;;;26.26;41.24;99011.69;5074985;28;20104;-82
2022/06/01 02:19:42;;;;;;;2.90;1.60;;;;;;;26.25;41.26;99008.16;5074890;28;20082;-83
2022/06/01 02:22:10;;;;;;;3.03;1.67;;;;;;;26.24;41.29;99002.97;5056514;28;20024;-84
2022/06/01 02:24:37;;;;;;;2.55;1.50;;;;;;;26.21;41.53;98998.72;5056907;28;20094;-85
2022/06/01 02:27:04;;;;;;;2.75;1.55;;;;;;;26.21;41.37;99004.06;5074413;28;20029;-84
2022/06/01 02:29:37;;;;;;;3.15;1.65;;;;;;;26.19;41.41;98998.00;5058624;28;20039;-83
2022/06/01 02:32:06;;;;;;;2.42;1.50;;;;;;;26.17;41.33;98997.28;5056466;28;20028;-83
2022/06/01 02:34:34;;;;;;;2.92;1.40;;;;;;;26.17;40.92;98997.28;5074377;28;20563;-84
2022/06/01 02:37:04;;;;;;;2.67;1.60;;;;;;;26.16;41.44;98990.25;5074169;28;20575;-84
2022/06/01 02:39:32;;;;;;;2.72;1.40;;;;;;;26.15;41.45;98993.94;5074335;28;20108;-82
2022/06/01 02:42:30;;;;;;;3.33;1.80;;;;;;;26.12;41.64;98997.72;5056611;28;20047;-83
2022/06/01 02:45:02;;;;;;;3.97;1.45;;;;;;;26.12;41.55;98995.03;5056567;28;20032;-83
2022/06/01 02:47:32;;;;;;;4.32;1.60;;;;;;;26.11;41.17;98992.50;5076242;28;20028;-83
2022/06/01 02:49:59;;;;;;;3.05;1.50;;;;;;;26.11;41.38;98987.16;5078291;28;20054;-83
2022/06/01 02:52:25;;;;;;;3.63;1.70;;;;;;;26.08;41.18;98979.41;5060251;28;20035;-84
2022/06/01 02:54:54;;;;;;;3.33;1.42;;;;;;;26.07;41.29;98981.25;5060265;28;20489;-83
2022/06/01 02:57:21;;;;;;;3.30;1.77;;;;;;;26.06;41.58;98978.72;5060365;28;20020;-85
2022/06/01 02:59:47;;;;;;;2.92;1.60;;;;;;;26.04;41.37;98973.50;5060045;28;20029;-84
2022/06/01 03:02:14;;;;;;;3.30;1.50;;;;;;;26.04;41.35;98972.66;5077583;28;20045;-84
2022/06/01 03:04:42;;;;;;;4.15;1.75;;;;;;;26.01;41.70;98977.28;5060011;28;20028;-84
2022/06/01 03:07:08;;;;;;;2.50;1.50;;;;;;;26.01;41.34;98971.09;5060567;28;20350;-85
2022/06/01 03:09:34;;;;;;;2.70;1.60;;;;;;;26.00;41.44;98977.41;5061219;28;20024;-85
2022/06/01 03:12:00;;;;;;;2.38;1.48;;;;;;;26.00;41.39;98969.41;5077639;28;20036;-83
2022/06/01 03:14:27;;;;;;;2.55;1.65;;;;;;;25.97;41.40;98967.88;5059835;28;20106;-82
2022/06/01 03:16:53;;;;;;;2.88;1.42;;;;;;;25.98;41.26;98977.56;5059859;28;20016;-86
2022/06/01 03:19:18;;;;;;;2.30;1.50;;;;;;;25.97;41.33;98975.03;5059938;28;20341;-82
2022/06/01 03:21:44;;;;;;;3.60;1.70;;;;;;;25.94;41.43;98970.81;5077363;28;20133;-83
2022/06/01 03:24:10;;;;;;;4.03;1.60;;;;;;;25.95;41.71;98967.16;5059724;28;20024;-84
2022/06/01 03:26:36;;;;;;;2.40;1.55;;;;;;;25.93;41.48;98969.13;5060308;28;20465;-83
2022/06/01 03:29:03;;;;;;;2.60;1.27;;;;;;;25.92;41.60;98967.44;5060778;28;20028;-85
2022/06/01 03:31:29;;;;;;;2.92;1.60;;;;;;;25.92;41.43;98962.09;5060742;28;20029;-83
2022/06/01 03:33:55;;;;;;;2.72;1.58;;;;;;;25.90;41.61;98961.38;5061238;28;20016;-83
2022/06/01 03:36:21;;;;;;;2.63;1.58;;;;;;;25.91;41.55;98959.56;5077997;28;20099;-84
2022/06/01 03:38:46;;;;;;;5.10;1.95;;;;;;;25.90;41.69;98960.53;5060214;28;20020;-84
2022/06/01 03:41:12;;;;;;;2.72;1.48;;;;;;;25.89;41.45;98956.19;5077973;28;20095;-83
2022/06/01 03:46:22;;;;;;;4.43;1.65;;;;;;;25.86;41.77;98968.00;5078578;28;20119;-86
2022/06/01 03:48:48;;;;;;;4.35;1.88;;;;;;;25.85;41.64;98967.13;5063373;28;20338;-86
2022/06/01 03:51:14;;;;;;;2.58;1.75;;;;;;;25.84;41.63;98969.94;5082583;28;20020;-85
2022/06/01 03:53:39;;;;;;;2.70;1.42;;;;;;;25.84;41.35;98980.63;5062864;28;20377;-85
2022/06/01 03:56:07;;;;;;;2.45;1.40;;;;;;;25.83;41.64;98974.47;5082746;28;20080;-85
2022/06/01 03:58:33;;;;;;;2.65;1.55;;;;;;;25.82;41.29;98971.91;5064854;28;20034;-85
2022/06/01 04:00:58;;;;;;;2.92;1.63;;;;;;;25.80;41.40;98973.88;5060406;28;20108;-86
2022/06/01 04:03:24;;;;;;;3.55;1.75;;;;;;;25.81;41.71;98980.91;5067548;28;20462;-87
2022/06/01 04:05:50;;;;;;;2.55;1.55;;;;;;;25.80;41.60;98981.91;5084923;28;20028;-85
2022/06/01 04:08:15;;;;;;;2.85;1.58;;;;;;;25.79;41.37;98985.53;5067255;28;20052;-86
2022/06/01 04:10:43;;;;;;;2.47;1.38;;;;;;;25.79;41.56;98988.19;5083792;28;20036;-82
2022/06/01 04:13:10;;;;;;;2.47;1.35;;;;;;;25.78;41.70;98997.22;5076579;28;20034;-85
2022/06/01 04:15:36;;;;;;;2.72;1.70;;;;;;;25.76;41.61;98996.50;5076367;28;20101;-83
2022/06/01 04:18:02;;;;;;;3.28;1.48;;;;;;;25.74;41.65;98996.63;5058630;28;20434;-82
2022/06/01 04:20:27;;;;;;;2.55;1.45;;;;;;;25.73;41.87;98992.28;5058715;28;20035;-84
2022/06/01 04:22:54;;;;;;;2.83;1.52;;;;;;;25.73;41.76;98998.44;5076124;28;20035;-83
2022/06/01 04:25:21;;;;;;;2.72;1.48;;;;;;;25.72;41.54;98998.63;5060577;28;20101;-84
2022/06/01 04:27:46;;;;;;;2.58;1.60;;;;;;;25.71;41.83;99005.78;5058515;28;20457;-83
2022/06/01 04:30:16;;;;;;;3.55;1.45;;;;;;;25.70;41.70;99001.41;5058760;28;20055;-85
2022/06/01 04:32:43;;;;;;;2.35;1.67;;;;;;;25.71;41.53;98997.75;5058406;28;20468;-84
2022/06/01 04:35:09;;;;;;;2.95;1.60;;;;;;;25.69;41.82;98999.72;5058683;28;20174;-82
2022/06/01 04:37:34;;;;;;;2.97;1.48;;;;;;;25.68;41.66;98998.03;5058647;28;20119;-83
2022/06/01 04:40:00;;;;;;;2.80;1.50;;;;;;;25.66;41.81;98994.66;5058561;28;20148;-83
2022/06/01 04:42:25;;;;;;;2.50;1.42;;;;;;;25.66;41.53;98993.81;5075909;28;20025;-83
2022/06/01 04:44:51;;;;;;;2.88;1.40;;;;;;;25.65;41.85;98992.97;5058411;28;20444;-85
2022/06/01 04:47:18;;;;;;;2.60;1.55;;;;;;;25.63;41.91;98989.59;5075797;28;20029;-83
2022/06/01 04:49:45;;;;;;;2.88;1.50;;;;;;;25.64;41.88;98991.28;5058048;28;20111;-83
2022/06/01 04:52:11;;;;;;;5.45;1.95;;;;;;;25.63;41.91;98992.25;5058179;28;20131;-82
2022/06/01 04:54:37;;;;;;;2.50;1.30;;;;;;;25.62;41.67;98990.56;5058212;28;20450;-82
2022/06/01 04:57:04;;;;;;;2.47;1.48;;;;;;;25.62;42.00;98998.59;5058728;28;20086;-83
2022/06/01 04:59:30;;;;;;;3.45;1.60;;;;;;;25.61;41.69;99004.88;5058371;28;20028;-83
2022/06/01 05:01:56;;;;;;;2.55;1.40;;;;;;;25.60;42.00;99000.53;5075484;28;20127;-84
2022/06/01 05:04:21;;;;;;;2.58;1.38;;;;;;;25.59;41.92;98998.84;5065916;28;20043;-84
2022/06/01 05:06:47;;;;;;;2.38;1.40;;;;;;;25.59;41.97;99004.19;5078363;28;20040;-84
2022/06/01 05:09:12;;;;;;;3.03;1.58;;;;;;;25.59;42.10;99006.84;5058124;28;20093;-83
2022/06/01 05:11:38;;;;;;;2.90;1.48;;;;;;;25.59;41.79;99004.19;5058322;28;20028;-83
2022/06/01 05:14:03;;;;;;;2.78;1.40;;;;;;;25.58;41.80;99005.16;5058155;28;20028;-84
2022/06/01 05:16:29;;;;;;;2.53;1.50;;;;;;;25.57;41.89;99001.63;5076012;28;20020;-83
2022/06/01 05:18:54;;;;;;;2.13;1.40;;;;;;;25.57;41.91;99000.81;5058081;28;20445;-84
2022/06/01 05:21:21;;;;;;;2.95;1.50;;;;;;;25.57;42.03;98998.16;5058068;28;20070;-83
2022/06/01 05:23:46;;;;;;;2.92;1.70;;;;;;;25.56;41.99;98999.97;5075465;28;20468;-83
2022/06/01 05:26:12;;;;;;;2.60;1.45;;;;;;;25.57;41.74;99000.81;5075635;28;20025;-85
2022/06/01 05:28:37;;;;;;;2.17;1.40;;;;;;;25.56;41.75;98999.13;5057878;28;20086;-85
2022/06/01 05:31:06;;;;;;;3.88;1.75;;;;;;;25.56;41.89;99002.63;5058135;28;20029;-85
2022/06/01 05:33:33;;;;;;;3.08;1.52;;;;;;;25.56;41.99;98991.94;5075402;28;20028;-84
2022/06/01 05:35:59;;;;;;;2.33;1.52;;;;;;;25.57;42.26;98995.47;5057549;28;20369;-86
2022/06/01 05:38:25;;;;;;;3.38;1.40;;;;;;;25.55;42.17;98998.28;5057166;28;20093;-84
2022/06/01 05:40:50;;;;;;;2.72;1.30;;;;;;;25.56;42.10;98994.63;5057741;28;20040;-85
2022/06/01 05:43:17;;;;;;;2.38;1.40;;;;;;;25.57;42.07;98992.81;5062852;28;20024;-85
2022/06/01 05:45:43;;;;;;;2.70;1.63;;;;;;;25.55;41.93;98992.06;5057450;28;20056;-84
2022/06/01 05:48:11;;;;;;;3.00;1.65;;;;;;;25.56;42.18;98994.63;5074998;28;20063;-83
2022/06/01 05:50:38;;;;;;;3.13;1.50;;;;;;;25.56;42.21;98999.13;5057612;28;20096;-85
2022/06/01 05:53:04;;;;;;;3.58;1.50;;;;;;;25.55;41.92;98992.94;5057435;28;20444;-84
2022/06/01 05:55:30;;;;;;;2.90;1.38;;;;;;;25.57;41.94;99000.81;5075288;28;20032;-83
2022/06/01 05:57:55;;;;;;;3.70;1.80;;;;;;;25.56;42.24;98994.63;5058378;28;20115;-83
2022/06/01 06:00:22;;;;;;;4.05;1.75;;;;;;;25.56;42.17;98999.13;5058296;28;20366;-84
2022/06/01 06:02:47;;;;;;;2.72;1.50;;;;;;;25.56;42.02;98999.97;5058198;28;20474;-83
2022/06/01 06:07:58;;;;;;;2.38;1.40;;;;;;;25.56;42.20;99010.66;5077079;28;20036;-86
2022/06/01 06:10:24;;;;;;;3.70;1.40;;;;;;;25.57;42.25;99006.16;5059751;28;20029;-83
2022/06/01 06:12:50;;;;;;;2.90;1.58;;;;;;;25.57;42.31;99017.66;5077347;28;20028;-84
2022/06/01 06:15:16;;;;;;;3.20;1.50;;;;;;;25.58;42.14;99015.84;5060114;28;20020;-84
2022/06/01 06:17:42;;;;;;;2.95;1.70;;;;;;;25.58;42.28;99018.53;5061377;28;20017;-86
2022/06/01 06:20:09;;;;;;;2.63;1.60;;;;;;;25.58;42.27;99018.53;5079252;28;20051;-85
2022/06/01 06:22:34;;;;;;;2.78;1.45;;;;;;;25.59;42.33;99020.22;5067442;28;20028;-86
2022/06/01 06:25:00;;;;;;;3.13;1.58;;;;;;;25.60;42.18;99021.91;5069017;28;20039;-86
2022/06/01 06:27:27;;;;;;;3.10;1.63;;;;;;;25.64;42.48;99028.69;5087321;28;20051;-86
2022/06/01 06:29:53;;;;;;;2.47;1.50;;;;;;;25.64;42.30;99028.69;5069173;28;20442;-87
2022/06/01 06:32:19;;;;;;;2.80;1.50;;;;;;;25.69;42.33;99030.94;5068787;28;20488;-84
2022/06/01 06:34:45;;;;;;;2.50;1.75;;;;;;;25.74;42.30;99039.41;5062436;28;20115;-83
2022/06/01 06:37:10;;;;;;;1.77;1.33;;;;;;;25.74;42.54;99040.25;5078701;28;20020;-84
2022/06/01 06:39:36;;;;;;;3.83;1.98;;;;;;;25.77;42.43;99041.81;5060701;28;20025;-83
2022/06/01 06:42:01;;;;;;;3.13;1.50;;;;;;;25.78;42.40;99045.31;5060938;28;20052;-83
2022/06/01 06:44:27;;;;;;;2.42;1.40;;;;;;;25.80;42.54;99043.38;5060506;28;20017;-83
2022/06/01 06:46:52;;;;;;;2.78;1.50;;;;;;;25.82;42.55;99046.75;5078142;28;20028;-84
2022/06/01 06:49:18;;;;;;;2.63;1.60;;;;;;;25.84;42.47;99050.13;5060454;28;20035;-84
2022/06/01 06:51:43;;;;;;;2.90;1.70;;;;;;;25.84;42.63;99050.13;5078323;28;20100;-83
2022/06/01 06:54:10;;;;;;;2.70;1.55;;;;;;;25.85;42.74;99051.78;5078238;28;20833;-83
2022/06/01 06:56:36;;;;;;;3.03;1.80;;;;;;;25.84;42.65;99055.47;5060475;28;20036;-82
2022/06/01 06:59:03;;;;;;;2.72;1.60;;;;;;;25.87;42.32;99060.53;5061416;28;20020;-85
2022/06/01 07:01:28;;;;;;;2.72;1.40;;;;;;;25.89;42.72;99053.22;5062219;28;20354;-85
2022/06/01 07:03:54;;;;;;;3.25;1.85;;;;;;;25.87;42.86;99058.69;5060165;28;20028;-84
2022/06/01 07:06:19;;;;;;;3.33;1.67;;;;;;;25.89;42.54;99063.09;5060372;28;20024;-84
2022/06/01 07:08:48;;;;;;;2.60;1.67;;;;;;;25.88;42.71;99062.22;5060370;28;20115;-83
2022/06/01 07:11:16;;;;;;;3.22;1.70;;;;;;;25.88;42.71;99062.22;5060353;28;20031;-85
2022/06/01 07:13:42;;;;;;;2.95;1.88;;;;;;;25.90;42.62;99060.25;5077708;28;20036;-85
2022/06/01 07:16:11;;;;;;;2.83;1.85;;;;;;;25.90;42.47;99064.78;5060705;28;20024;-84
2022/06/01 07:18:38;;;;;;;3.97;2.00;;;;;;;25.92;42.67;99069.00;5077853;28;20446;-84
2022/06/01 07:21:05;;;;;;;3.53;1.77;;;;;;;25.92;42.58;99063.66;5077375;28;20035;-83
2022/06/01 07:23:31;;;;;;;2.55;1.70;;;;;;;25.95;42.72;99062.53;5059863;28;20135;-82
2022/06/01 07:25:57;;;;;;;2.70;1.70;;;;;;;25.94;42.54;99053.66;5060123;28;20020;-83
2022/06/01 07:28:23;;;;;;;3.97;1.70;;;;;;;25.96;42.70;99059.72;5059517;28;20025;-83
2022/06/01 07:30:50;;;;;;;3.80;1.88;;;;;;;25.96;42.73;99065.06;5059487;28;20029;-83
2022/06/01 07:33:19;;;;;;;3.28;1.63;;;;;;;25.97;42.59;99060.56;5060165;28;20097;-84
2022/06/01 07:35:44;;;;;;;3.03;1.73;;;;;;;25.98;42.82;99064.94;5079721;28;20021;-82
2022/06/01 07:43:40;;;;;;;2.75;1.70;;;;;;;26.04;42.92;99061.72;5077807;28;20370;-83
2022/06/01 07:46:06;;;;;;;3.38;1.90;;;;;;;26.07;42.70;99060.59;5060439;28;20048;-84
2022/06/01 07:48:33;;;;;;;3.83;2.00;;;;;;;26.09;42.56;99059.47;5059802;28;20025;-83
2022/06/01 07:50:59;;;;;;;3.78;1.80;;;;;;;26.10;42.90;99060.34;5078177;28;20093;-84
2022/06/01 07:53:24;;;;;;;3.47;1.88;;;;;;;26.12;42.82;99053.88;5081243;28;20111;-87
2022/06/01 07:55:50;;;;;;;5.38;2.30;;;;;;;26.14;42.42;99048.34;5083860;28;20116;-83
2022/06/01 07:58:16;;;;;;;4.22;2.10;;;;;;;26.15;42.47;99044.72;5060130;28;20034;-84
2022/06/01 08:00:41;;;;;;;3.17;1.80;;;;;;;26.17;42.54;99040.06;5059606;28;20034;-84
2022/06/01 08:03:16;;;;;;;3.95;2.10;;;;;;;26.20;42.80;99041.63;5076917;28;20059;-85
2022/06/01 08:05:43;;;;;;;3.22;1.90;;;;;;;26.21;42.58;99041.50;5077386;28;20074;-85
2022/06/01 08:08:09;;;;;;;2.92;1.80;;;;;;;26.23;42.64;99038.69;5077314;28;20036;-85
2022/06/01 08:10:36;;;;;;;3.83;2.05;;;;;;;26.23;42.46;99031.53;5059395;28;20067;-86
2022/06/01 08:13:07;;;;;;;3.10;1.80;;;;;;;26.26;42.19;99033.91;5076693;28;20028;-84
2022/06/01 08:15:41;;;;;;;4.10;1.98;;;;;;;26.30;42.17;99039.00;5059062;28;20024;-84
2022/06/01 08:18:08;;;;;;;3.65;2.17;;;;;;;26.31;42.29;99035.34;5060713;28;20023;-83
2022/06/01 08:20:34;;;;;;;3.30;1.70;;;;;;;26.32;42.52;99035.19;5060059;28;20032;-83
2022/06/01 08:23:00;;;;;;;3.53;1.90;;;;;;;26.35;42.29;99042.09;5059101;28;20024;-83
2022/06/01 08:25:27;;;;;;;4.57;2.10;;;;;;;26.36;42.38;99043.78;5058874;28;20025;-84
2022/06/01 08:27:53;;;;;;;3.15;2.00;;;;;;;26.38;42.24;99039.13;5076618;28;20024;-84
2022/06/01 08:30:21;;;;;;;2.95;1.80;;;;;;;26.39;42.00;99044.34;5077088;28;20086;-85
2022/06/01 08:32:48;;;;;;;4.07;1.83;;;;;;;26.42;42.36;99048.59;5059715;28;20089;-82
2022/06/01 08:35:19;;;;;;;3.55;1.80;;;;;;;26.43;42.31;99047.59;5077146;28;20028;-83
2022/06/01 08:37:48;;;;;;;2.80;1.83;;;;;;;26.44;42.00;99043.09;5059850;28;20020;-85
2022/06/01 08:40:16;;;;;;;3.30;2.05;;;;;;;26.45;42.33;99040.28;5059840;28;20090;-85
2022/06/01 08:42:49;;;;;;;3.50;1.88;;;;;;;26.48;42.14;99041.84;5077987;28;20362;-84
2022/06/01 08:45:16;;;;;;;2.95;1.60;;;;;;;26.48;42.14;99042.66;5058830;28;20063;-85
2022/06/01 08:47:42;;;;;;;3.95;2.40;;;;;;;26.51;41.96;99049.56;5077666;28;20024;-85
2022/06/01 08:50:16;;;;;;;3.75;2.15;;;;;;;26.53;42.14;99048.44;5061919;28;20087;-86
2022/06/01 08:52:42;;;;;;;3.40;1.80;;;;;;;26.54;42.20;99051.97;5079779;28;20034;-86
2022/06/01 08:55:07;;;;;;;3.00;1.80;;;;;;;26.57;42.19;99053.53;5060576;28;20028;-83
2022/06/01 08:57:47;;;;;;;3.85;2.10;;;;;;;26.59;42.23;99046.19;5060887;28;20476;-85
2022/06/01 09:00:19;;;;;;;3.15;1.95;;;;;;;26.61;42.03;99047.75;5057626;28;20028;-86
2022/06/01 09:02:53;;;;;;;2.80;1.70;;;;;;;26.62;41.93;99049.44;5057347;28;20056;-85
2022/06/01 09:05:44;;;;;;;4.88;2.10;;;;;;;26.64;42.05;99047.47;5057644;28;20020;-85
2022/06/01 09:08:41;;;;;;;3.08;1.52;;;;;;;26.65;41.75;99045.63;5057841;28;20028;-86
2022/06/01 09:11:11;;;;;;;3.85;1.77;;;;;;;26.66;42.05;99050.84;5056919;28;20492;-84
2022/06/01 09:13:44;;;;;;;5.50;2.00;;;;;;;26.69;42.29;99044.38;5057502;28;20085;-84
2022/06/01 09:16:17;;;;;;;4.22;1.67;;;;;;;26.72;42.02;99046.75;5058064;28;20112;-83
2022/06/01 09:18:52;;;;;;;4.72;2.08;;;;;;;26.72;42.21;99049.44;5075583;28;20025;-83
2022/06/01 09:24:33;;;;;;;3.63;1.90;;;;;;;26.76;42.14;99041.97;5075434;28;20438;-83
2022/06/01 09:27:05;;;;;;;2.88;1.70;;;;;;;26.78;41.90;99043.50;5057279;28;20035;-84
2022/06/01 09:29:52;;;;;;;4.35;1.90;;;;;;;26.79;41.48;99055.91;5075198;28;20024;-82
2022/06/01 09:32:32;;;;;;;4.13;2.00;;;;;;;26.82;41.76;99044.06;5056991;28;20176;-85
2022/06/01 09:35:03;;;;;;;2.97;1.80;;;;;;;26.83;42.32;99042.25;5075281;28;20028;-83
2022/06/01 09:37:34;;;;;;;2.42;1.60;;;;;;;26.84;41.96;99039.44;5059164;28;20031;-83
2022/06/01 09:40:06;;;;;;;2.88;1.85;;;;;;;26.88;41.96;99042.66;5075386;28;20024;-82
2022/06/01 09:42:38;;;;;;;4.35;1.98;;;;;;;26.88;41.81;99048.03;5057976;28;20460;-82
2022/06/01 09:45:23;;;;;;;3.72;1.80;;;;;;;26.91;41.70;99047.72;5057354;28;20361;-83
2022/06/01 09:47:50;;;;;;;3.33;2.00;;;;;;;26.92;41.83;99044.13;5056836;28;20017;-82
2022/06/01 09:50:22;;;;;;;4.05;1.73;;;;;;;26.95;41.76;99043.81;5057179;28;20025;-82
2022/06/01 09:52:49;;;;;;;3.45;1.90;;;;;;;26.96;41.84;99044.66;5075022;28;20024;-82
2022/06/01 09:55:15;;;;;;;4.63;2.20;;;;;;;26.97;41.81;99046.34;5057018;28;20028;-84
2022/06/01 09:57:41;;;;;;;3.42;1.75;;;;;;;26.99;42.08;99045.22;5056019;28;20021;-83
2022/06/01 10:06:15;;;;;;;4.53;2.22;;;;;;;27.05;42.01;99055.34;5055498;28;20044;-84
2022/06/01 10:08:44;;;;;;;3.35;1.90;;;;;;;27.06;41.72;99051.69;5029436;28;20032;-86
2022/06/01 10:11:30;;;;;;;3.40;2.03;;;;;;;27.11;41.70;99047.75;5037987;28;20049;-84
2022/06/01 10:14:24;;;;;;;4.00;2.13;;;;;;;27.12;41.71;99044.06;5038116;28;20052;-86
2022/06/01 10:17:04;;;;;;;4.20;1.95;;;;;;;27.14;41.76;99042.94;5046876;28;20025;-83
2022/06/01 10:19:32;;;;;;;4.75;1.88;;;;;;;27.16;41.64;99045.47;5038635;28;20028;-85
2022/06/01 10:22:14;;;;;;;4.25;1.98;;;;;;;27.18;41.71;99038.13;5037492;28;20028;-85
2022/06/01 10:24:58;;;;;;;3.72;2.10;;;;;;;27.22;41.51;99039.53;5046743;28;20025;-85
2022/06/01 10:27:41;;;;;;;3.92;2.08;;;;;;;27.24;41.38;99042.06;5036650;28;20032;-84
2022/06/01 10:30:21;;;;;;;2.92;2.08;;;;;;;27.26;41.75;99032.88;5036902;28;20053;-83
2022/06/01 10:33:15;;;;;;;4.22;1.77;;;;;;;27.28;41.35;99025.56;5037271;28;20534;-86
2022/06/01 10:35:46;;;;;;;3.20;1.77;;;;;;;27.31;41.62;99022.59;5029902;28;20029;-85
2022/06/01 10:38:24;;;;;;;4.18;2.08;;;;;;;27.34;41.45;99019.63;5036921;28;20032;-84
2022/06/01 10:41:29;;;;;;;4.50;2.08;;;;;;;27.37;41.56;99025.66;5036727;28;20474;-84
2022/06/01 10:44:21;;;;;;;4.15;2.25;;;;;;;27.40;41.42;99018.19;4959321;28;20027;-83
2022/06/01 10:47:10;;;;;;;4.15;2.05;;;;;;;27.38;41.40;99012.13;5038097;28;20466;-84
2022/06/01 10:50:00;;;;;;;4.97;2.42;;;;;;;27.42;42.07;99010.00;5038832;28;20032;-84
2022/06/01 10:52:43;;;;;;;4.05;2.00;;;;;;;27.45;41.26;99007.03;5038939;28;20051;-85
2022/06/01 10:55:20;;;;;;;3.83;1.92;;;;;;;27.48;41.49;99006.75;5042042;28;20040;-88
2022/06/01 10:57:48;;;;;;;4.07;2.42;;;;;;;27.51;41.94;99014.50;5040562;28;20075;-85
2022/06/01 11:00:24;;;;;;;4.05;2.20;;;;;;;27.53;41.84;99001.78;5041707;28;20175;-85
2022/06/01 11:02:58;;;;;;;2.85;1.80;;;;;;;27.55;41.64;99010.50;5053869;28;20063;-88
2022/06/01 11:05:57;;;;;;;4.88;2.08;;;;;;;27.57;41.46;99000.50;5062985;28;20051;-87
2022/06/01 11:08:23;;;;;;;3.33;1.73;;;;;;;27.61;41.93;98990.38;5064892;28;20093;-86
2022/06/01 11:10:57;;;;;;;3.60;2.10;;;;;;;27.63;41.53;98996.41;5067582;28;20091;-84
2022/06/01 11:13:41;;;;;;;3.15;2.08;;;;;;;27.65;41.76;98996.25;5085405;28;20415;-85
2022/06/01 11:16:33;;;;;;;3.85;2.05;;;;;;;27.68;41.71;98987.91;5084353;28;20031;-83
2022/06/01 11:19:28;;;;;;;3.97;2.20;;;;;;;27.72;41.38;98991.97;5059738;28;20088;-81
2022/06/01 11:22:22;;;;;;;3.33;2.00;;;;;;;27.75;41.63;98989.03;5077817;28;20081;-83
2022/06/01 11:25:13;;;;;;;5.07;2.30;;;;;;;27.78;41.91;98991.38;5059809;28;20202;-82
2022/06/01 11:27:49;;;;;;;3.60;2.33;;;;;;;27.81;42.29;98984.88;5059766;28;20013;-82
2022/06/01 11:30:19;;;;;;;3.67;2.20;;;;;;;27.82;42.04;98992.78;5059862;28;20036;-84
2022/06/01 11:32:48;;;;;;;5.55;2.15;;;;;;;27.84;42.21;98982.75;5061399;28;20108;-83
2022/06/01 11:35:19;;;;;;;3.78;2.38;;;;;;;27.87;41.93;98978.91;5059993;28;20454;-84
2022/06/01 11:38:07;;;;;;;4.80;2.33;;;;;;;27.91;42.12;98984.81;5060613;28;20132;-82
2022/06/01 11:40:38;;;;;;;3.53;2.20;;;;;;;27.93;42.08;98980.16;5078633;28;20025;-81
2022/06/01 11:43:07;;;;;;;4.90;2.38;;;;;;;27.94;42.18;98980.00;5060663;28;20465;-83
2022/06/01 11:45:38;;;;;;;4.85;2.45;;;;;;;27.97;42.40;98979.72;5078560;28;20028;-84
2022/06/01 11:48:08;;;;;;;4.40;2.30;;;;;;;27.99;42.07;98974.19;5059281;28;20106;-83
2022/06/01 11:50:46;;;;;;;4.18;2.45;;;;;;;28.01;42.23;98969.53;5059628;28;20484;-86
2022/06/01 11:53:19;;;;;;;3.55;2.35;;;;;;;28.03;42.55;98967.50;5057362;28;20469;-85
2022/06/01 11:55:48;;;;;;;4.93;2.40;;;;;;;28.05;42.51;98965.53;5058531;28;20028;-84
2022/06/01 11:58:21;;;;;;;3.78;2.40;;;;;;;28.07;42.42;98971.59;5056234;28;20470;-84
2022/06/01 12:00:51;;;;;;;4.82;2.42;;;;;;;28.10;42.41;98968.63;5057024;28;20112;-85
2022/06/01 12:03:17;;;;;;;4.03;2.40;;;;;;;28.13;42.34;98962.09;5035295;28;20484;-83
2022/06/01 12:06:05;;;;;;;4.75;2.42;;;;;;;28.14;42.05;98961.09;5038637;28;20078;-83
2022/06/01 12:09:00;;;;;;;4.25;2.30;;;;;;;28.18;42.05;98953.59;5034898;28;20359;-82
2022/06/01 12:11:38;;;;;;;4.72;2.30;;;;;;;28.20;42.46;98952.44;5033545;28;20037;-83